sensor_id;sensor_type;location;lat;lon;timestamp;temperature;humidity
46754;DHT22;32500;50.620;3.400;2022-07-23T00:00:55;23.80;64.10
46754;DHT22;32500;50.620;3.400;2022-07-23T00:03:21;23.80;64.20
46754;DHT22;32500;50.620;3.400;2022-07-23T00:05:47;23.80;64.20
46754;DHT22;32500;50.620;3.400;2022-07-23T00:08:12;23.80;64.20
46754;DHT22;32500;50.620;3.400;2022-07-23T00:10:38;23.80;64.30
46754;DHT22;32500;50.620;3.400;2022-07-23T00:13:04;23.80;64.30
46754;DHT22;32500;50.620;3.400;2022-07-23T00:15:30;23.80;64.20
46754;DHT22;32500;50.620;3.400;2022-07-23T00:17:55;23.80;64.20
46754;DHT22;32500;50.620;3.400;2022-07-23T00:20:21;23.80;65.00
46754;DHT22;32500;50.620;3.400;2022-07-23T00:22:52;23.80;64.30
46754;DHT22;32500;50.620;3.400;2022-07-23T00:25:19;23.70;64.20
46754;DHT22;32500;50.620;3.400;2022-07-23T00:27:45;23.80;64.20
46754;DHT22;32500;50.620;3.400;2022-07-23T00:30:11;23.70;64.20
46754;DHT22;32500;50.620;3.400;2022-07-23T00:32:51;23.80;64.30
46754;DHT22;32500;50.620;3.400;2022-07-23T00:35:20;23.80;64.30
46754;DHT22;32500;50.620;3.400;2022-07-23T00:37:46;23.70;64.30
46754;DHT22;32500;50.620;3.400;2022-07-23T00:40:11;23.70;64.30
46754;DHT22;32500;50.620;3.400;2022-07-23T00:42:38;23.70;64.40
46754;DHT22;32500;50.620;3.400;2022-07-23T00:45:04;23.70;64.30
46754;DHT22;32500;50.620;3.400;2022-07-23T00:47:30;23.70;64.40
46754;DHT22;32500;50.620;3.400;2022-07-23T00:49:56;23.70;64.40
46754;DHT22;32500;50.620;3.400;2022-07-23T00:52:22;23.60;64.20
46754;DHT22;32500;50.620;3.400;2022-07-23T00:54:48;23.70;64.30
46754;DHT22;32500;50.620;3.400;2022-07-23T00:57:14;23.60;64.30
46754;DHT22;32500;50.620;3.400;2022-07-23T00:59:40;23.60;64.20
46754;DHT22;32500;50.620;3.400;2022-07-23T01:02:05;23.60;64.30
46754;DHT22;32500;50.620;3.400;2022-07-23T01:04:31;23.60;64.20
46754;DHT22;32500;50.620;3.400;2022-07-23T01:06:57;23.60;64.20
46754;DHT22;32500;50.620;3.400;2022-07-23T01:09:23;23.60;64.30
46754;DHT22;32500;50.620;3.400;2022-07-23T01:11:50;23.60;64.40
46754;DHT22;32500;50.620;3.400;2022-07-23T01:14:18;23.60;64.50
46754;DHT22;32500;50.620;3.400;2022-07-23T01:16:45;23.50;64.50
46754;DHT22;32500;50.620;3.400;2022-07-23T01:19:12;23.50;64.30
46754;DHT22;32500;50.620;3.400;2022-07-23T01:21:40;23.50;64.30
46754;DHT22;32500;50.620;3.400;2022-07-23T01:24:07;23.50;64.40
46754;DHT22;32500;50.620;3.400;2022-07-23T01:26:33;23.50;64.40
46754;DHT22;32500;50.620;3.400;2022-07-23T01:28:58;23.50;64.30
46754;DHT22;32500;50.620;3.400;2022-07-23T01:31:24;23.50;64.30
46754;DHT22;32500;50.620;3.400;2022-07-23T01:33:50;23.50;64.30
46754;DHT22;32500;50.620;3.400;2022-07-23T01:36:16;23.50;64.50
46754;DHT22;32500;50.620;3.400;2022-07-23T01:38:41;23.50;64.40
46754;DHT22;32500;50.620;3.400;2022-07-23T01:41:07;23.50;64.40
46754;DHT22;32500;50.620;3.400;2022-07-23T01:43:33;23.50;64.40
46754;DHT22;32500;50.620;3.400;2022-07-23T01:45:58;23.50;64.40
46754;DHT22;32500;50.620;3.400;2022-07-23T01:48:24;23.50;64.50
46754;DHT22;32500;50.620;3.400;2022-07-23T01:50:49;23.40;64.40
46754;DHT22;32500;50.620;3.400;2022-07-23T01:53:15;23.40;64.30
46754;DHT22;32500;50.620;3.400;2022-07-23T01:55:42;23.40;64.50
46754;DHT22;32500;50.620;3.400;2022-07-23T01:58:07;23.40;64.50
46754;DHT22;32500;50.620;3.400;2022-07-23T02:00:33;23.40;64.50
46754;DHT22;32500;50.620;3.400;2022-07-23T02:02:59;23.40;64.60
46754;DHT22;32500;50.620;3.400;2022-07-23T02:05:25;23.40;64.60
46754;DHT22;32500;50.620;3.400;2022-07-23T02:07:51;23.40;65.30
46754;DHT22;32500;50.620;3.400;2022-07-23T02:10:17;23.40;64.40
46754;DHT22;32500;50.620;3.400;2022-07-23T02:12:43;23.40;64.50
46754;DHT22;32500;50.620;3.400;2022-07-23T02:15:09;23.40;64.50
46754;DHT22;32500;50.620;3.400;2022-07-23T02:17:35;23.40;64.50
46754;DHT22;32500;50.620;3.400;2022-07-23T02:20:00;23.30;64.40
46754;DHT22;32500;50.620;3.400;2022-07-23T02:22:26;23.30;64.40
46754;DHT22;32500;50.620;3.400;2022-07-23T02:24:52;23.30;64.60
46754;DHT22;32500;50.620;3.400;2022-07-23T02:27:17;23.30;64.50
46754;DHT22;32500;50.620;3.400;2022-07-23T02:29:43;23.30;64.50
46754;DHT22;32500;50.620;3.400;2022-07-23T02:32:08;23.30;64.50
46754;DHT22;32500;50.620;3.400;2022-07-23T02:34:34;23.30;64.40
46754;DHT22;32500;50.620;3.400;2022-07-23T02:37:00;23.30;64.50
46754;DHT22;32500;50.620;3.400;2022-07-23T02:39:26;23.30;64.50
46754;DHT22;32500;50.620;3.400;2022-07-23T02:41:52;23.30;64.50
46754;DHT22;32500;50.620;3.400;2022-07-23T02:44:18;23.30;64.50
46754;DHT22;32500;50.620;3.400;2022-07-23T02:46:43;23.20;64.50
46754;DHT22;32500;50.620;3.400;2022-07-23T02:49:09;23.30;64.50
46754;DHT22;32500;50.620;3.400;2022-07-23T02:51:34;23.20;64.40
46754;DHT22;32500;50.620;3.400;2022-07-23T02:54:00;23.20;64.50
46754;DHT22;32500;50.620;3.400;2022-07-23T02:56:26;23.30;64.50
46754;DHT22;32500;50.620;3.400;2022-07-23T02:58:51;23.20;64.60
46754;DHT22;32500;50.620;3.400;2022-07-23T03:01:17;23.20;64.40
46754;DHT22;32500;50.620;3.400;2022-07-23T03:03:42;23.20;64.40
46754;DHT22;32500;50.620;3.400;2022-07-23T03:06:08;23.20;64.40
46754;DHT22;32500;50.620;3.400;2022-07-23T03:08:34;23.20;64.50
46754;DHT22;32500;50.620;3.400;2022-07-23T03:10:59;23.20;64.40
46754;DHT22;32500;50.620;3.400;2022-07-23T03:13:25;23.20;64.30
46754;DHT22;32500;50.620;3.400;2022-07-23T03:15:50;23.20;64.40
46754;DHT22;32500;50.620;3.400;2022-07-23T03:18:16;23.20;64.40
46754;DHT22;32500;50.620;3.400;2022-07-23T03:20:42;23.20;64.80
46754;DHT22;32500;50.620;3.400;2022-07-23T03:23:08;23.10;64.30
46754;DHT22;32500;50.620;3.400;2022-07-23T03:25:33;23.10;64.30
46754;DHT22;32500;50.620;3.400;2022-07-23T03:27:59;23.10;64.30
46754;DHT22;32500;50.620;3.400;2022-07-23T03:30:24;23.20;64.30
46754;DHT22;32500;50.620;3.400;2022-07-23T03:32:50;23.10;64.30
46754;DHT22;32500;50.620;3.400;2022-07-23T03:35:16;23.10;64.30
46754;DHT22;32500;50.620;3.400;2022-07-23T03:37:41;23.20;64.30
46754;DHT22;32500;50.620;3.400;2022-07-23T03:40:07;23.10;64.20
46754;DHT22;32500;50.620;3.400;2022-07-23T03:42:33;23.10;64.20
46754;DHT22;32500;50.620;3.400;2022-07-23T03:44:59;23.10;64.20
46754;DHT22;32500;50.620;3.400;2022-07-23T03:47:24;23.10;64.40
46754;DHT22;32500;50.620;3.400;2022-07-23T03:49:50;23.10;64.40
46754;DHT22;32500;50.620;3.400;2022-07-23T03:52:16;23.10;64.30
46754;DHT22;32500;50.620;3.400;2022-07-23T03:54:41;23.10;64.30
46754;DHT22;32500;50.620;3.400;2022-07-23T03:57:07;23.10;64.30
46754;DHT22;32500;50.620;3.400;2022-07-23T03:59:33;23.10;64.30
46754;DHT22;32500;50.620;3.400;2022-07-23T04:01:58;23.10;64.30
46754;DHT22;32500;50.620;3.400;2022-07-23T04:04:24;23.10;64.20
46754;DHT22;32500;50.620;3.400;2022-07-23T04:06:49;23.00;64.20
46754;DHT22;32500;50.620;3.400;2022-07-23T04:09:15;23.00;64.10
46754;DHT22;32500;50.620;3.400;2022-07-23T04:11:41;23.10;64.20
46754;DHT22;32500;50.620;3.400;2022-07-23T04:14:06;23.10;64.00
46754;DHT22;32500;50.620;3.400;2022-07-23T04:16:32;23.10;64.00
46754;DHT22;32500;50.620;3.400;2022-07-23T04:18:58;23.00;63.90
46754;DHT22;32500;50.620;3.400;2022-07-23T04:21:24;23.00;63.80
46754;DHT22;32500;50.620;3.400;2022-07-23T04:23:50;23.00;63.90
46754;DHT22;32500;50.620;3.400;2022-07-23T04:26:18;23.00;64.00
46754;DHT22;32500;50.620;3.400;2022-07-23T04:28:44;23.00;63.90
46754;DHT22;32500;50.620;3.400;2022-07-23T04:31:09;23.10;64.00
46754;DHT22;32500;50.620;3.400;2022-07-23T04:33:35;23.10;63.80
46754;DHT22;32500;50.620;3.400;2022-07-23T04:36:01;23.10;63.80
46754;DHT22;32500;50.620;3.400;2022-07-23T04:38:26;23.10;63.80
46754;DHT22;32500;50.620;3.400;2022-07-23T04:40:52;23.10;63.70
46754;DHT22;32500;50.620;3.400;2022-07-23T04:43:18;23.20;64.40
46754;DHT22;32500;50.620;3.400;2022-07-23T04:45:44;23.10;63.60
46754;DHT22;32500;50.620;3.400;2022-07-23T04:48:10;23.10;63.50
46754;DHT22;32500;50.620;3.400;2022-07-23T04:50:35;23.10;63.40
46754;DHT22;32500;50.620;3.400;2022-07-23T04:53:01;23.10;63.40
46754;DHT22;32500;50.620;3.400;2022-07-23T04:55:26;23.10;63.40
46754;DHT22;32500;50.620;3.400;2022-07-23T04:57:52;23.20;63.50
46754;DHT22;32500;50.620;3.400;2022-07-23T05:00:18;23.20;63.40
46754;DHT22;32500;50.620;3.400;2022-07-23T05:02:43;23.20;63.30
46754;DHT22;32500;50.620;3.400;2022-07-23T05:05:09;23.20;63.40
46754;DHT22;32500;50.620;3.400;2022-07-23T05:07:35;23.10;63.20
46754;DHT22;32500;50.620;3.400;2022-07-23T05:10:00;23.20;63.40
46754;DHT22;32500;50.620;3.400;2022-07-23T05:12:26;23.20;63.30
46754;DHT22;32500;50.620;3.400;2022-07-23T05:14:51;23.10;63.20
46754;DHT22;32500;50.620;3.400;2022-07-23T05:17:18;23.20;63.10
46754;DHT22;32500;50.620;3.400;2022-07-23T05:19:43;23.20;63.10
46754;DHT22;32500;50.620;3.400;2022-07-23T05:22:09;23.30;63.00
46754;DHT22;32500;50.620;3.400;2022-07-23T05:24:35;23.30;62.80
46754;DHT22;32500;50.620;3.400;2022-07-23T05:27:00;23.30;62.80
46754;DHT22;32500;50.620;3.400;2022-07-23T05:29:26;23.30;62.80
46754;DHT22;32500;50.620;3.400;2022-07-23T05:31:51;23.30;62.80
46754;DHT22;32500;50.620;3.400;2022-07-23T05:34:17;23.30;62.60
46754;DHT22;32500;50.620;3.400;2022-07-23T05:36:42;23.30;62.50
46754;DHT22;32500;50.620;3.400;2022-07-23T05:39:08;23.30;62.40
46754;DHT22;32500;50.620;3.400;2022-07-23T05:41:34;23.30;62.50
46754;DHT22;32500;50.620;3.400;2022-07-23T05:44:00;23.30;62.40
46754;DHT22;32500;50.620;3.400;2022-07-23T05:46:25;23.30;62.50
46754;DHT22;32500;50.620;3.400;2022-07-23T05:48:51;23.30;62.50
46754;DHT22;32500;50.620;3.400;2022-07-23T05:51:23;23.30;62.50
46754;DHT22;32500;50.620;3.400;2022-07-23T05:53:49;23.30;62.50
46754;DHT22;32500;50.620;3.400;2022-07-23T05:56:15;23.30;62.50
46754;DHT22;32500;50.620;3.400;2022-07-23T05:58:41;23.40;62.30
46754;DHT22;32500;50.620;3.400;2022-07-23T06:01:07;23.30;62.40
46754;DHT22;32500;50.620;3.400;2022-07-23T06:03:33;23.30;62.30
46754;DHT22;32500;50.620;3.400;2022-07-23T06:05:58;23.40;62.50
46754;DHT22;32500;50.620;3.400;2022-07-23T06:08:24;23.30;62.40
46754;DHT22;32500;50.620;3.400;2022-07-23T06:10:50;23.40;62.30
46754;DHT22;32500;50.620;3.400;2022-07-23T06:13:17;23.40;62.20
46754;DHT22;32500;50.620;3.400;2022-07-23T06:15:43;23.40;63.00
46754;DHT22;32500;50.620;3.400;2022-07-23T06:18:09;23.40;62.10
46754;DHT22;32500;50.620;3.400;2022-07-23T06:20:35;23.40;62.20
46754;DHT22;32500;50.620;3.400;2022-07-23T06:23:00;23.40;62.00
46754;DHT22;32500;50.620;3.400;2022-07-23T06:25:26;23.40;62.10
46754;DHT22;32500;50.620;3.400;2022-07-23T06:27:51;23.40;62.10
46754;DHT22;32500;50.620;3.400;2022-07-23T06:30:17;23.50;62.00
46754;DHT22;32500;50.620;3.400;2022-07-23T06:32:47;23.50;61.80
46754;DHT22;32500;50.620;3.400;2022-07-23T06:35:12;23.50;61.80
46754;DHT22;32500;50.620;3.400;2022-07-23T06:37:38;23.50;61.80
46754;DHT22;32500;50.620;3.400;2022-07-23T06:40:04;23.50;61.60
46754;DHT22;32500;50.620;3.400;2022-07-23T06:42:30;23.50;61.70
46754;DHT22;32500;50.620;3.400;2022-07-23T06:44:56;23.50;61.40
46754;DHT22;32500;50.620;3.400;2022-07-23T06:47:21;23.50;61.40
46754;DHT22;32500;50.620;3.400;2022-07-23T06:49:47;23.60;61.30
46754;DHT22;32500;50.620;3.400;2022-07-23T06:52:13;23.60;61.20
46754;DHT22;32500;50.620;3.400;2022-07-23T06:54:38;23.60;60.90
46754;DHT22;32500;50.620;3.400;2022-07-23T06:57:04;23.60;60.90
46754;DHT22;32500;50.620;3.400;2022-07-23T06:59:29;23.60;60.80
46754;DHT22;32500;50.620;3.400;2022-07-23T07:01:55;23.70;60.80
46754;DHT22;32500;50.620;3.400;2022-07-23T07:04:21;23.60;60.60
46754;DHT22;32500;50.620;3.400;2022-07-23T07:06:46;23.70;60.80
46754;DHT22;32500;50.620;3.400;2022-07-23T07:09:12;23.70;60.30
46754;DHT22;32500;50.620;3.400;2022-07-23T07:11:38;23.70;60.20
46754;DHT22;32500;50.620;3.400;2022-07-23T07:14:03;23.70;60.30
46754;DHT22;32500;50.620;3.400;2022-07-23T07:16:29;23.70;60.10
46754;DHT22;32500;50.620;3.400;2022-07-23T07:18:55;23.70;60.20
46754;DHT22;32500;50.620;3.400;2022-07-23T07:21:21;23.70;60.00
46754;DHT22;32500;50.620;3.400;2022-07-23T07:23:46;23.70;60.30
46754;DHT22;32500;50.620;3.400;2022-07-23T07:26:12;23.70;60.40
46754;DHT22;32500;50.620;3.400;2022-07-23T07:28:38;23.80;61.20
46754;DHT22;32500;50.620;3.400;2022-07-23T07:31:03;23.80;60.50
46754;DHT22;32500;50.620;3.400;2022-07-23T07:33:29;23.80;60.20
46754;DHT22;32500;50.620;3.400;2022-07-23T07:35:54;23.90;60.50
46754;DHT22;32500;50.620;3.400;2022-07-23T07:38:20;23.90;60.40
46754;DHT22;32500;50.620;3.400;2022-07-23T07:40:46;23.90;60.10
46754;DHT22;32500;50.620;3.400;2022-07-23T07:43:11;23.90;60.10
46754;DHT22;32500;50.620;3.400;2022-07-23T07:45:37;23.90;60.10
46754;DHT22;32500;50.620;3.400;2022-07-23T07:48:03;24.00;60.70
46754;DHT22;32500;50.620;3.400;2022-07-23T07:50:29;24.00;60.20
46754;DHT22;32500;50.620;3.400;2022-07-23T07:52:54;24.00;60.30
46754;DHT22;32500;50.620;3.400;2022-07-23T07:55:20;24.00;60.30
46754;DHT22;32500;50.620;3.400;2022-07-23T07:57:46;24.00;60.20
46754;DHT22;32500;50.620;3.400;2022-07-23T08:00:12;24.00;60.30
46754;DHT22;32500;50.620;3.400;2022-07-23T08:02:46;24.00;60.20
46754;DHT22;32500;50.620;3.400;2022-07-23T08:05:12;24.00;60.20
46754;DHT22;32500;50.620;3.400;2022-07-23T08:07:38;24.10;60.10
46754;DHT22;32500;50.620;3.400;2022-07-23T08:10:07;24.10;60.00
46754;DHT22;32500;50.620;3.400;2022-07-23T08:12:40;24.10;60.10
46754;DHT22;32500;50.620;3.400;2022-07-23T08:15:07;24.30;59.60
46754;DHT22;32500;50.620;3.400;2022-07-23T08:17:33;24.20;59.70
46754;DHT22;32500;50.620;3.400;2022-07-23T08:19:58;24.30;59.60
46754;DHT22;32500;50.620;3.400;2022-07-23T08:22:24;24.40;59.40
46754;DHT22;32500;50.620;3.400;2022-07-23T08:24:49;24.50;59.10
46754;DHT22;32500;50.620;3.400;2022-07-23T08:27:15;24.60;59.00
46754;DHT22;32500;50.620;3.400;2022-07-23T08:29:41;24.60;58.90
46754;DHT22;32500;50.620;3.400;2022-07-23T08:32:06;24.60;58.80
46754;DHT22;32500;50.620;3.400;2022-07-23T08:34:32;24.70;58.80
46754;DHT22;32500;50.620;3.400;2022-07-23T08:36:57;24.70;58.80
46754;DHT22;32500;50.620;3.400;2022-07-23T08:39:23;24.70;58.80
46754;DHT22;32500;50.620;3.400;2022-07-23T08:41:49;24.70;58.70
46754;DHT22;32500;50.620;3.400;2022-07-23T08:44:16;24.70;58.80
46754;DHT22;32500;50.620;3.400;2022-07-23T08:46:43;24.70;58.80
46754;DHT22;32500;50.620;3.400;2022-07-23T08:49:09;24.70;58.80
46754;DHT22;32500;50.620;3.400;2022-07-23T08:51:35;24.70;59.00
46754;DHT22;32500;50.620;3.400;2022-07-23T08:54:01;24.70;58.70
46754;DHT22;32500;50.620;3.400;2022-07-23T08:56:27;24.50;59.00
46754;DHT22;32500;50.620;3.400;2022-07-23T08:58:55;24.50;59.10
46754;DHT22;32500;50.620;3.400;2022-07-23T09:01:21;24.50;59.70
46754;DHT22;32500;50.620;3.400;2022-07-23T09:03:47;24.50;59.10
46754;DHT22;32500;50.620;3.400;2022-07-23T09:06:12;24.60;58.50
46754;DHT22;32500;50.620;3.400;2022-07-23T09:08:43;24.60;58.80
46754;DHT22;32500;50.620;3.400;2022-07-23T09:11:11;24.70;58.60
46754;DHT22;32500;50.620;3.400;2022-07-23T09:18:44;24.80;58.50
46754;DHT22;32500;50.620;3.400;2022-07-23T09:26:25;24.80;58.40
46754;DHT22;32500;50.620;3.400;2022-07-23T09:29:18;24.80;58.40
46754;DHT22;32500;50.620;3.400;2022-07-23T09:31:53;24.80;58.40
46754;DHT22;32500;50.620;3.400;2022-07-23T09:34:29;24.80;58.40
46754;DHT22;32500;50.620;3.400;2022-07-23T09:37:17;24.90;58.50
46754;DHT22;32500;50.620;3.400;2022-07-23T09:39:45;24.90;58.50
46754;DHT22;32500;50.620;3.400;2022-07-23T09:42:17;24.90;58.50
46754;DHT22;32500;50.620;3.400;2022-07-23T09:44:45;24.90;58.40
46754;DHT22;32500;50.620;3.400;2022-07-23T09:47:11;24.90;58.40
46754;DHT22;32500;50.620;3.400;2022-07-23T09:49:37;24.90;58.40
46754;DHT22;32500;50.620;3.400;2022-07-23T09:52:03;25.00;58.50
46754;DHT22;32500;50.620;3.400;2022-07-23T09:54:33;24.90;58.30
46754;DHT22;32500;50.620;3.400;2022-07-23T09:59:35;25.00;58.40
46754;DHT22;32500;50.620;3.400;2022-07-23T10:02:02;25.00;58.40
46754;DHT22;32500;50.620;3.400;2022-07-23T10:04:29;25.00;58.40
46754;DHT22;32500;50.620;3.400;2022-07-23T10:06:57;25.00;58.40
46754;DHT22;32500;50.620;3.400;2022-07-23T10:09:32;25.00;58.40
46754;DHT22;32500;50.620;3.400;2022-07-23T10:12:03;25.00;58.40
46754;DHT22;32500;50.620;3.400;2022-07-23T10:14:50;25.00;58.40
46754;DHT22;32500;50.620;3.400;2022-07-23T10:17:16;25.00;58.40
46754;DHT22;32500;50.620;3.400;2022-07-23T10:19:43;25.00;58.40
46754;DHT22;32500;50.620;3.400;2022-07-23T10:22:24;25.10;58.40
46754;DHT22;32500;50.620;3.400;2022-07-23T10:25:03;25.00;58.40
46754;DHT22;32500;50.620;3.400;2022-07-23T10:30:39;25.10;58.30
46754;DHT22;32500;50.620;3.400;2022-07-23T10:35:44;25.00;58.20
46754;DHT22;32500;50.620;3.400;2022-07-23T10:40:58;25.10;58.20
46754;DHT22;32500;50.620;3.400;2022-07-23T10:43:25;25.10;58.20
46754;DHT22;32500;50.620;3.400;2022-07-23T10:45:51;25.10;58.20
46754;DHT22;32500;50.620;3.400;2022-07-23T10:48:25;25.10;58.10
46754;DHT22;32500;50.620;3.400;2022-07-23T10:51:18;25.20;58.10
46754;DHT22;32500;50.620;3.400;2022-07-23T10:54:02;25.10;58.10
46754;DHT22;32500;50.620;3.400;2022-07-23T10:57:05;25.10;58.10
46754;DHT22;32500;50.620;3.400;2022-07-23T11:02:35;25.10;58.10
46754;DHT22;32500;50.620;3.400;2022-07-23T11:05:05;25.20;58.10
46754;DHT22;32500;50.620;3.400;2022-07-23T11:07:31;25.20;58.10
46754;DHT22;32500;50.620;3.400;2022-07-23T11:09:57;25.20;58.10
46754;DHT22;32500;50.620;3.400;2022-07-23T11:17:27;25.20;58.00
46754;DHT22;32500;50.620;3.400;2022-07-23T11:25:12;25.20;57.90
46754;DHT22;32500;50.620;3.400;2022-07-23T11:30:09;25.20;57.80
46754;DHT22;32500;50.620;3.400;2022-07-23T11:32:37;25.20;57.80
46754;DHT22;32500;50.620;3.400;2022-07-23T11:35:22;25.20;57.80
46754;DHT22;32500;50.620;3.400;2022-07-23T11:37:49;25.30;57.80
46754;DHT22;32500;50.620;3.400;2022-07-23T11:40:19;25.30;57.90
46754;DHT22;32500;50.620;3.400;2022-07-23T11:42:59;25.30;57.80
46754;DHT22;32500;50.620;3.400;2022-07-23T11:45:31;25.30;57.80
46754;DHT22;32500;50.620;3.400;2022-07-23T11:47:57;25.30;57.70
46754;DHT22;32500;50.620;3.400;2022-07-23T11:50:23;25.30;57.60
46754;DHT22;32500;50.620;3.400;2022-07-23T11:52:50;25.30;57.70
46754;DHT22;32500;50.620;3.400;2022-07-23T11:55:16;25.30;57.70
46754;DHT22;32500;50.620;3.400;2022-07-23T11:57:43;25.30;57.70
46754;DHT22;32500;50.620;3.400;2022-07-23T12:00:14;25.30;57.40
46754;DHT22;32500;50.620;3.400;2022-07-23T12:02:43;25.40;57.60
46754;DHT22;32500;50.620;3.400;2022-07-23T12:05:16;25.40;57.70
46754;DHT22;32500;50.620;3.400;2022-07-23T12:07:44;25.40;57.70
46754;DHT22;32500;50.620;3.400;2022-07-23T12:13:33;25.40;58.40
46754;DHT22;32500;50.620;3.400;2022-07-23T12:15:56;25.40;57.80
46754;DHT22;32500;50.620;3.400;2022-07-23T12:18:24;25.40;57.80
46754;DHT22;32500;50.620;3.400;2022-07-23T12:20:52;25.40;57.80
46754;DHT22;32500;50.620;3.400;2022-07-23T12:23:19;25.50;57.90
46754;DHT22;32500;50.620;3.400;2022-07-23T12:25:47;25.50;57.80
46754;DHT22;32500;50.620;3.400;2022-07-23T12:28:22;25.50;57.90
46754;DHT22;32500;50.620;3.400;2022-07-23T12:30:54;25.50;57.80
46754;DHT22;32500;50.620;3.400;2022-07-23T12:33:25;25.60;57.90
46754;DHT22;32500;50.620;3.400;2022-07-23T12:35:51;25.60;57.90
46754;DHT22;32500;50.620;3.400;2022-07-23T12:38:23;25.50;57.80
46754;DHT22;32500;50.620;3.400;2022-07-23T12:40:54;25.50;57.90
46754;DHT22;32500;50.620;3.400;2022-07-23T12:43:30;25.60;58.00
46754;DHT22;32500;50.620;3.400;2022-07-23T12:48:32;25.60;57.90
46754;DHT22;32500;50.620;3.400;2022-07-23T12:51:02;25.60;57.90
46754;DHT22;32500;50.620;3.400;2022-07-23T12:53:40;25.60;57.80
46754;DHT22;32500;50.620;3.400;2022-07-23T12:56:09;25.60;57.80
46754;DHT22;32500;50.620;3.400;2022-07-23T12:58:55;25.70;57.80
46754;DHT22;32500;50.620;3.400;2022-07-23T13:01:24;25.70;57.80
46754;DHT22;32500;50.620;3.400;2022-07-23T13:04:08;25.70;57.90
46754;DHT22;32500;50.620;3.400;2022-07-23T13:06:36;25.70;57.80
46754;DHT22;32500;50.620;3.400;2022-07-23T13:09:05;25.80;57.90
46754;DHT22;32500;50.620;3.400;2022-07-23T13:11:31;25.70;57.90
46754;DHT22;32500;50.620;3.400;2022-07-23T13:13:57;25.70;57.80
46754;DHT22;32500;50.620;3.400;2022-07-23T13:16:23;25.70;57.90
46754;DHT22;32500;50.620;3.400;2022-07-23T13:18:49;25.80;58.00
46754;DHT22;32500;50.620;3.400;2022-07-23T13:21:15;25.80;58.00
46754;DHT22;32500;50.620;3.400;2022-07-23T13:23:41;25.80;58.00
46754;DHT22;32500;50.620;3.400;2022-07-23T13:26:07;25.80;57.90
46754;DHT22;32500;50.620;3.400;2022-07-23T13:28:33;25.80;57.80
46754;DHT22;32500;50.620;3.400;2022-07-23T13:30:58;25.80;57.80
46754;DHT22;32500;50.620;3.400;2022-07-23T13:33:24;25.80;57.80
46754;DHT22;32500;50.620;3.400;2022-07-23T13:35:52;25.80;57.80
46754;DHT22;32500;50.620;3.400;2022-07-23T13:38:18;25.80;57.80
46754;DHT22;32500;50.620;3.400;2022-07-23T13:40:47;25.90;57.80
46754;DHT22;32500;50.620;3.400;2022-07-23T13:43:15;25.90;57.80
46754;DHT22;32500;50.620;3.400;2022-07-23T13:45:41;25.90;57.80
46754;DHT22;32500;50.620;3.400;2022-07-23T13:48:11;25.90;57.80
46754;DHT22;32500;50.620;3.400;2022-07-23T13:50:38;25.90;57.90
46754;DHT22;32500;50.620;3.400;2022-07-23T13:53:14;25.90;57.80
46754;DHT22;32500;50.620;3.400;2022-07-23T13:55:41;26.00;57.90
46754;DHT22;32500;50.620;3.400;2022-07-23T13:58:08;25.90;57.80
46754;DHT22;32500;50.620;3.400;2022-07-23T14:00:36;26.00;57.90
46754;DHT22;32500;50.620;3.400;2022-07-23T14:03:03;25.90;58.00
46754;DHT22;32500;50.620;3.400;2022-07-23T14:05:29;25.90;57.90
46754;DHT22;32500;50.620;3.400;2022-07-23T14:07:54;26.00;58.00
46754;DHT22;32500;50.620;3.400;2022-07-23T14:10:22;26.00;57.90
46754;DHT22;32500;50.620;3.400;2022-07-23T14:12:48;26.00;57.90
46754;DHT22;32500;50.620;3.400;2022-07-23T14:15:15;26.00;57.80
46754;DHT22;32500;50.620;3.400;2022-07-23T14:17:42;26.00;57.80
46754;DHT22;32500;50.620;3.400;2022-07-23T14:20:10;26.00;57.80
46754;DHT22;32500;50.620;3.400;2022-07-23T14:22:36;26.00;57.70
46754;DHT22;32500;50.620;3.400;2022-07-23T14:25:03;26.10;57.70
46754;DHT22;32500;50.620;3.400;2022-07-23T14:27:29;26.00;57.70
46754;DHT22;32500;50.620;3.400;2022-07-23T14:29:55;26.10;57.80
46754;DHT22;32500;50.620;3.400;2022-07-23T14:32:22;26.10;57.80
46754;DHT22;32500;50.620;3.400;2022-07-23T14:34:48;26.10;57.80
46754;DHT22;32500;50.620;3.400;2022-07-23T14:37:14;26.10;57.80
46754;DHT22;32500;50.620;3.400;2022-07-23T14:39:41;26.10;57.70
46754;DHT22;32500;50.620;3.400;2022-07-23T14:42:08;26.10;57.80
46754;DHT22;32500;50.620;3.400;2022-07-23T14:44:34;26.10;57.80
46754;DHT22;32500;50.620;3.400;2022-07-23T14:47:00;26.10;57.80
46754;DHT22;32500;50.620;3.400;2022-07-23T14:49:27;26.10;57.80
46754;DHT22;32500;50.620;3.400;2022-07-23T14:51:52;26.10;58.10
46754;DHT22;32500;50.620;3.400;2022-07-23T14:54:18;26.10;57.90
46754;DHT22;32500;50.620;3.400;2022-07-23T14:56:46;26.10;57.80
46754;DHT22;32500;50.620;3.400;2022-07-23T14:59:12;26.10;57.90
46754;DHT22;32500;50.620;3.400;2022-07-23T15:01:38;26.10;57.80
46754;DHT22;32500;50.620;3.400;2022-07-23T15:04:05;26.10;57.80
46754;DHT22;32500;50.620;3.400;2022-07-23T15:06:31;26.10;57.80
46754;DHT22;32500;50.620;3.400;2022-07-23T15:08:57;26.10;57.80
46754;DHT22;32500;50.620;3.400;2022-07-23T15:11:23;26.10;57.70
46754;DHT22;32500;50.620;3.400;2022-07-23T15:13:48;26.10;57.80
46754;DHT22;32500;50.620;3.400;2022-07-23T15:16:14;26.10;57.80
46754;DHT22;32500;50.620;3.400;2022-07-23T15:18:40;26.10;57.80
46754;DHT22;32500;50.620;3.400;2022-07-23T15:21:05;26.10;58.40
46754;DHT22;32500;50.620;3.400;2022-07-23T15:23:31;26.10;57.80
46754;DHT22;32500;50.620;3.400;2022-07-23T15:25:57;26.10;57.80
46754;DHT22;32500;50.620;3.400;2022-07-23T15:28:23;26.10;57.80
46754;DHT22;32500;50.620;3.400;2022-07-23T15:30:50;26.20;58.00
46754;DHT22;32500;50.620;3.400;2022-07-23T15:33:17;26.10;57.90
46754;DHT22;32500;50.620;3.400;2022-07-23T15:35:43;26.10;58.00
46754;DHT22;32500;50.620;3.400;2022-07-23T15:38:08;26.10;58.00
46754;DHT22;32500;50.620;3.400;2022-07-23T15:40:34;26.10;58.00
46754;DHT22;32500;50.620;3.400;2022-07-23T15:43:01;26.10;58.00
46754;DHT22;32500;50.620;3.400;2022-07-23T15:45:26;26.10;58.00
46754;DHT22;32500;50.620;3.400;2022-07-23T15:47:52;26.10;58.10
46754;DHT22;32500;50.620;3.400;2022-07-23T15:50:18;26.10;58.00
46754;DHT22;32500;50.620;3.400;2022-07-23T15:52:43;26.20;58.10
46754;DHT22;32500;50.620;3.400;2022-07-23T15:55:09;26.20;58.00
46754;DHT22;32500;50.620;3.400;2022-07-23T15:57:35;26.20;58.00
46754;DHT22;32500;50.620;3.400;2022-07-23T16:00:01;26.20;57.90
46754;DHT22;32500;50.620;3.400;2022-07-23T16:02:27;26.20;57.90
46754;DHT22;32500;50.620;3.400;2022-07-23T16:04:52;26.20;57.90
46754;DHT22;32500;50.620;3.400;2022-07-23T16:07:21;26.20;57.90
46754;DHT22;32500;50.620;3.400;2022-07-23T16:09:47;26.20;57.90
46754;DHT22;32500;50.620;3.400;2022-07-23T16:12:12;26.20;57.90